Time;durP1;ratioP1;P1;durP2;ratioP2;P2;SDS_P1;SDS_P2;PMS_P1;PMS_P2;Temp;Humidity;BMP_temperature;BMP_pressure;BME280_temperature;BME280_humidity;BME280_pressure;Samples;Min_cycle;Max_cycle;Signal;HPM_P1;HPM_P2
2021/10/20 00:00:38;;;;;;;6.57;2.97;;;;;;;17.61;58.29;99969.34;5015133;28;20058;-81
2021/10/20 00:03:06;;;;;;;3.90;2.70;;;;;;;17.53;58.63;99957.16;5015144;28;20046;-81
2021/10/20 00:05:33;;;;;;;3.42;2.70;;;;;;;17.59;58.32;99952.84;5017942;28;20050;-81
2021/10/20 00:08:07;;;;;;;3.40;2.40;;;;;;;17.59;58.23;99952.03;5004079;28;20061;-81
2021/10/20 00:10:35;;;;;;;4.30;2.60;;;;;;;17.57;57.74;99957.22;5006064;28;20057;-81
2021/10/20 00:13:03;;;;;;;3.72;3.03;;;;;;;17.53;58.09;99943.06;4999945;28;20058;-82
2021/10/20 00:15:30;;;;;;;3.80;2.67;;;;;;;17.54;57.52;99941.88;5000050;28;20065;-81
2021/10/20 00:17:59;;;;;;;5.40;2.75;;;;;;;17.51;57.74;99939.81;5003644;28;20057;-82
2021/10/20 00:20:27;;;;;;;3.53;2.60;;;;;;;17.58;57.69;99939.94;4999870;28;20482;-82
2021/10/20 00:22:56;;;;;;;4.82;2.78;;;;;;;17.49;57.69;99930.13;4998269;28;20062;-81
2021/10/20 00:25:23;;;;;;;4.28;2.60;;;;;;;17.55;57.95;99923.78;5000066;28;20058;-82
2021/10/20 00:27:50;;;;;;;4.43;2.63;;;;;;;17.64;57.00;99917.94;5000145;28;20069;-82
2021/10/20 00:30:18;;;;;;;5.70;2.75;;;;;;;17.61;57.05;99922.28;4999997;28;20518;-81
2021/10/20 00:32:46;;;;;;;4.50;3.13;;;;;;;17.61;56.87;99918.66;4999062;28;20069;-82
2021/10/20 00:35:15;;;;;;;4.03;2.63;;;;;;;17.52;56.81;99918.13;4979829;28;20058;-82
2021/10/20 00:37:42;;;;;;;3.83;2.60;;;;;;;17.53;57.01;99906.47;4992713;28;20057;-81
2021/10/20 00:40:11;;;;;;;3.00;2.45;;;;;;;17.54;57.14;99907.28;4999356;28;20061;-82
2021/10/20 00:42:38;;;;;;;3.67;2.38;;;;;;;17.58;56.59;99897.72;4999771;28;20058;-82
2021/10/20 00:45:07;;;;;;;3.38;2.50;;;;;;;17.51;56.90;99913.66;4999947;28;20494;-82
2021/10/20 00:47:39;;;;;;;3.17;2.20;;;;;;;17.54;56.32;99925.00;4991494;28;20073;-81
2021/10/20 00:50:08;;;;;;;3.42;2.58;;;;;;;17.67;56.15;99894.63;4999339;28;20126;-81
2021/10/20 00:52:37;;;;;;;;;;;;;;;17.56;56.16;99877.56;5017002;28;20046;-82
2021/10/20 00:55:09;;;;;;;4.25;2.53;;;;;;;17.58;56.29;99910.97;5018980;28;19921;-82
2021/10/20 00:57:38;;;;;;;3.53;2.60;;;;;;;17.56;56.27;99888.03;5019145;28;20073;-82
2021/10/20 01:00:14;;;;;;;3.28;2.50;;;;;;;17.55;56.54;99889.19;5013250;28;20057;-84
2021/10/20 01:02:42;;;;;;;6.32;3.22;;;;;;;17.58;56.50;99874.38;5000792;28;20050;-82
2021/10/20 01:05:11;;;;;;;3.45;2.53;;;;;;;17.57;56.40;99881.19;5000060;28;20061;-82
2021/10/20 01:07:39;;;;;;;7.22;3.05;;;;;;;17.49;56.70;99877.44;5000121;28;20050;-82
2021/10/20 01:10:08;;;;;;;3.70;2.80;;;;;;;17.52;56.74;99870.25;5004922;28;20061;-82
2021/10/20 01:12:38;;;;;;;6.38;3.10;;;;;;;17.50;56.43;99872.63;5019487;28;20469;-82
2021/10/20 01:15:07;;;;;;;3.45;2.53;;;;;;;17.37;57.07;99853.09;5019698;28;20061;-82
2021/10/20 01:17:34;;;;;;;;;;;;;;;17.34;56.98;99853.84;5018124;28;20052;-82
2021/10/20 01:20:05;;;;;;;3.88;2.92;;;;;;;17.39;57.16;99856.34;5018489;28;19925;-82
2021/10/20 01:22:34;;;;;;;4.45;3.00;;;;;;;17.34;57.25;99853.84;5010333;28;20130;-82
2021/10/20 01:25:02;;;;;;;6.82;2.83;;;;;;;17.30;57.54;99849.34;4999908;28;20065;-82
2021/10/20 01:27:29;;;;;;;4.13;2.78;;;;;;;17.28;57.41;99860.97;4999283;28;20058;-82
2021/10/20 01:29:58;;;;;;;5.38;3.20;;;;;;;17.25;57.63;99850.47;5000897;28;20057;-82
2021/10/20 01:32:26;;;;;;;3.75;2.90;;;;;;;17.29;57.64;99845.72;4999371;28;20084;-82
2021/10/20 01:34:55;;;;;;;4.55;2.83;;;;;;;17.28;57.69;99834.84;4980082;28;20059;-81
2021/10/20 01:37:24;;;;;;;4.85;3.42;;;;;;;17.11;58.13;99836.13;4979493;28;20467;-82
2021/10/20 01:39:56;;;;;;;4.43;2.80;;;;;;;17.10;58.22;99843.78;4982775;28;20058;-82
2021/10/20 01:42:24;;;;;;;3.97;2.90;;;;;;;17.10;58.06;99820.47;5012127;28;20485;-82
2021/10/20 01:44:51;;;;;;;6.40;2.97;;;;;;;17.09;58.43;99827.25;4999842;28;20054;-82
2021/10/20 01:47:22;;;;;;;4.90;2.75;;;;;;;16.97;58.62;99831.88;4998608;28;20058;-82
2021/10/20 01:49:49;;;;;;;5.35;3.03;;;;;;;17.02;58.38;99817.50;4999521;28;20062;-82
2021/10/20 01:52:17;;;;;;;4.50;2.88;;;;;;;17.11;58.26;99822.06;4998683;28;20061;-82
2021/10/20 01:54:45;;;;;;;4.00;2.75;;;;;;;17.01;58.60;99813.06;4999230;28;20057;-82
2021/10/20 01:57:14;;;;;;;4.53;3.10;;;;;;;16.94;59.03;99801.69;4998337;28;20426;-81
2021/10/20 01:59:41;;;;;;;3.87;2.70;;;;;;;16.93;58.61;99788.81;4998777;28;20221;-82
2021/10/20 02:02:16;;;;;;;3.70;2.70;;;;;;;16.88;58.88;99802.34;4999016;28;21067;-82
2021/10/20 02:04:43;;;;;;;4.55;2.75;;;;;;;16.99;58.60;99817.47;4998201;28;20055;-82
2021/10/20 02:07:11;;;;;;;4.22;2.90;;;;;;;17.01;58.42;99795.38;4998024;28;20042;-82
2021/10/20 02:09:39;;;;;;;4.75;3.10;;;;;;;17.03;58.59;99796.63;4999027;28;20054;-82
2021/10/20 02:12:07;;;;;;;4.80;2.70;;;;;;;17.21;57.59;99821.44;4998226;28;20054;-82
2021/10/20 02:14:36;;;;;;;3.55;2.88;;;;;;;17.08;58.17;99803.94;4998264;28;20054;-82
2021/10/20 02:17:03;;;;;;;4.90;3.00;;;;;;;17.01;58.49;99801.00;4997624;28;20054;-82
2021/10/20 02:19:34;;;;;;;4.55;2.70;;;;;;;17.02;58.40;99816.69;4997486;28;20070;-82
2021/10/20 02:22:03;;;;;;;4.97;2.65;;;;;;;16.97;58.56;99795.31;5013034;28;20234;-82
2021/10/20 02:24:30;;;;;;;3.78;2.88;;;;;;;16.89;58.89;99779.50;5017686;28;20056;-82
2021/10/20 02:26:58;;;;;;;4.07;2.85;;;;;;;16.94;58.81;99784.78;5017656;28;20518;-82
2021/10/20 02:29:25;;;;;;;5.32;3.13;;;;;;;16.87;59.02;99767.81;5017147;28;20073;-82
2021/10/20 02:31:54;;;;;;;4.90;3.00;;;;;;;16.89;58.79;99793.56;4999980;28;20058;-81
2021/10/20 02:34:22;;;;;;;3.93;3.07;;;;;;;16.78;59.09;99764.41;4983997;28;20057;-81
2021/10/20 02:36:50;;;;;;;5.68;3.33;;;;;;;16.87;58.81;99784.69;4978327;28;20508;-82
2021/10/20 02:39:17;;;;;;;4.75;3.15;;;;;;;16.83;59.05;99776.16;4980036;28;20062;-82
2021/10/20 02:41:45;;;;;;;4.63;3.03;;;;;;;16.86;59.02;99771.78;5016523;28;20058;-81
2021/10/20 02:44:12;;;;;;;4.00;2.92;;;;;;;16.79;59.18;99771.63;5017985;28;20073;-82
2021/10/20 02:46:40;;;;;;;4.97;2.97;;;;;;;16.76;59.10;99778.81;5016970;28;20049;-81
2021/10/20 02:49:08;;;;;;;4.10;2.92;;;;;;;16.74;59.50;99778.38;5017702;28;20050;-81
2021/10/20 02:51:36;;;;;;;6.73;3.80;;;;;;;16.73;59.40;99765.50;4997224;28;20570;-81
2021/10/20 02:54:03;;;;;;;4.45;2.90;;;;;;;16.69;59.44;99764.63;4997592;28;20061;-82
2021/10/20 02:56:30;;;;;;;5.18;2.80;;;;;;;16.58;59.84;99750.38;4997085;28;20058;-82
2021/10/20 02:58:58;;;;;;;4.40;3.05;;;;;;;16.61;59.74;99752.44;4997644;28;20057;-82
2021/10/20 03:01:25;;;;;;;4.38;3.20;;;;;;;16.53;60.10;99747.06;4997084;28;20062;-82
2021/10/20 03:03:52;;;;;;;3.95;2.85;;;;;;;16.64;59.71;99746.06;4998203;28;20058;-82
2021/10/20 03:06:21;;;;;;;4.47;3.15;;;;;;;16.64;59.56;99736.81;4997762;28;20058;-82
2021/10/20 03:08:49;;;;;;;3.92;3.20;;;;;;;16.63;59.63;99729.56;4997939;28;20475;-82
2021/10/20 03:11:16;;;;;;;5.22;3.25;;;;;;;16.61;59.55;99738.38;5014195;28;20445;-82
2021/10/20 03:13:44;;;;;;;6.75;3.50;;;;;;;16.66;59.26;99722.41;5017518;28;20050;-82
2021/10/20 03:16:11;;;;;;;5.10;3.13;;;;;;;16.71;59.33;99730.50;5017058;28;20415;-82
2021/10/20 03:18:39;;;;;;;7.63;3.17;;;;;;;16.54;59.76;99729.00;5016867;28;20042;-81
2021/10/20 03:21:06;;;;;;;3.97;3.05;;;;;;;16.63;59.46;99724.78;5015766;28;20490;-82
2021/10/20 03:23:35;;;;;;;4.82;3.05;;;;;;;16.67;59.43;99724.81;5017103;28;20061;-82
2021/10/20 03:26:03;;;;;;;4.38;3.30;;;;;;;16.71;59.40;99724.88;5017095;28;20058;-82
2021/10/20 03:28:30;;;;;;;4.63;2.95;;;;;;;16.68;59.34;99715.19;5017552;28;20057;-81
2021/10/20 03:30:57;;;;;;;3.65;2.80;;;;;;;16.59;59.58;99712.63;5003343;28;20414;-82
2021/10/20 03:33:25;;;;;;;4.38;3.30;;;;;;;16.70;59.36;99695.16;4989941;28;20073;-82
2021/10/20 03:35:55;;;;;;;4.45;3.20;;;;;;;16.78;59.06;99697.72;4983773;28;20062;-82
2021/10/20 03:38:25;;;;;;;3.33;2.75;;;;;;;16.73;59.11;99692.38;4977200;28;20063;-82
2021/10/20 03:40:57;;;;;;;9.77;3.95;;;;;;;16.69;59.20;99716.00;4993380;28;20065;-82
2021/10/20 03:43:27;;;;;;;4.85;3.38;;;;;;;16.66;59.14;99711.94;5001387;28;20054;-82
2021/10/20 03:45:54;;;;;;;4.40;3.10;;;;;;;16.67;59.08;99691.06;5002521;28;20054;-82
2021/10/20 03:48:22;;;;;;;4.50;3.55;;;;;;;16.64;59.24;99695.44;5001699;28;20064;-81
2021/10/20 03:50:49;;;;;;;4.05;3.38;;;;;;;16.63;59.39;99715.50;5011528;28;20054;-82
2021/10/20 03:53:16;;;;;;;4.75;2.92;;;;;;;16.57;59.60;99695.34;5020894;28;20395;-82
2021/10/20 03:55:44;;;;;;;6.00;3.70;;;;;;;16.62;59.51;99697.00;5020813;28;20054;-82
2021/10/20 03:58:12;;;;;;;5.07;3.30;;;;;;;16.57;59.55;99695.34;5009613;28;20050;-82
2021/10/20 04:00:40;;;;;;;6.03;3.00;;;;;;;16.55;59.69;99685.66;5009962;28;20061;-82
2021/10/20 04:03:07;;;;;;;11.80;3.58;;;;;;;16.64;59.57;99692.63;5020960;28;20057;-82
2021/10/20 04:05:35;;;;;;;4.60;2.95;;;;;;;16.59;59.57;99701.41;5020367;28;20050;-82
2021/10/20 04:08:02;;;;;;;4.30;2.97;;;;;;;16.57;59.77;99681.28;5020304;28;20061;-82
2021/10/20 04:10:29;;;;;;;4.75;3.53;;;;;;;16.59;59.74;99694.97;5011993;28;20061;-82
2021/10/20 04:12:59;;;;;;;6.55;3.30;;;;;;;16.61;59.57;99678.53;5000322;28;20062;-82
2021/10/20 04:15:27;;;;;;;;;;;;;;;16.48;59.77;99663.81;5001088;28;20057;-82
2021/10/20 04:17:55;;;;;;;5.05;3.28;;;;;;;16.59;59.77;99678.91;5000833;28;19928;-82
2021/10/20 04:20:24;;;;;;;6.22;3.50;;;;;;;16.61;59.58;99664.47;5000934;28;20513;-81
2021/10/20 04:22:55;;;;;;;4.85;3.67;;;;;;;16.58;59.63;99671.63;5001031;28;20055;-82
2021/10/20 04:25:23;;;;;;;5.10;2.90;;;;;;;16.54;59.58;99667.94;4999803;28;20061;-82
2021/10/20 04:27:52;;;;;;;5.00;3.42;;;;;;;16.58;59.44;99653.97;5000670;28;20054;-82
2021/10/20 04:30:21;;;;;;;4.77;3.37;;;;;;;16.66;59.30;99664.16;5000844;28;20053;-82
2021/10/20 04:32:50;;;;;;;3.92;3.30;;;;;;;16.72;59.34;99664.66;4998843;28;20488;-82
2021/10/20 04:35:22;;;;;;;5.53;3.67;;;;;;;16.73;59.05;99663.44;4980476;28;20062;-82
2021/10/20 04:37:50;;;;;;;4.32;3.35;;;;;;;16.69;59.05;99673.81;4980666;28;20074;-82
2021/10/20 04:40:17;;;;;;;4.68;3.50;;;;;;;16.63;59.25;99665.72;4985810;28;20591;-82
2021/10/20 04:42:45;;;;;;;6.35;3.40;;;;;;;16.66;59.18;99660.53;4998987;28;20399;-82
2021/10/20 04:45:13;;;;;;;5.07;3.20;;;;;;;16.71;58.91;99649.75;4999717;28;20053;-82
2021/10/20 04:47:41;;;;;;;3.47;3.10;;;;;;;16.65;59.15;99642.81;4999085;28;20054;-82
2021/10/20 04:50:10;;;;;;;4.20;3.15;;;;;;;16.69;59.12;99654.16;4999474;28;20061;-82
2021/10/20 04:52:38;;;;;;;4.05;3.22;;;;;;;16.64;59.33;99647.66;4999302;28;20050;-82
2021/10/20 04:55:08;;;;;;;5.05;3.30;;;;;;;16.68;59.35;99636.47;4999761;28;20054;-82
2021/10/20 04:57:35;;;;;;;3.95;3.17;;;;;;;16.62;59.23;99635.97;4999358;28;20055;-82
2021/10/20 05:00:06;;;;;;;3.75;2.80;;;;;;;16.64;59.38;99624.34;5000510;28;20050;-82
2021/10/20 05:02:36;;;;;;;4.43;3.30;;;;;;;16.67;59.36;99617.16;4999679;28;20741;-82
2021/10/20 05:05:04;;;;;;;3.92;3.05;;;;;;;16.72;59.38;99606.41;4999648;28;20503;-82
2021/10/20 05:07:34;;;;;;;6.28;3.58;;;;;;;16.70;59.46;99622.03;4999242;28;20065;-82
2021/10/20 05:10:01;;;;;;;;;;;;;;;16.65;59.83;99628.78;5000368;28;20050;-81
2021/10/20 05:12:28;;;;;;;3.92;3.28;;;;;;;16.77;59.39;99602.47;5003095;28;19925;-81
2021/10/20 05:14:55;;;;;;;4.85;3.13;;;;;;;16.72;59.36;99597.16;4999973;28;20054;-81
2021/10/20 05:17:22;;;;;;;5.97;3.65;;;;;;;16.78;59.45;99602.09;4999763;28;20054;-81
2021/10/20 05:19:50;;;;;;;4.70;3.42;;;;;;;16.78;59.30;99581.59;4998749;28;20050;-81
2021/10/20 05:22:19;;;;;;;4.10;3.20;;;;;;;16.75;59.53;99607.66;5002123;28;20053;-82
2021/10/20 05:24:48;;;;;;;;;;;;;;;16.66;59.54;99587.44;5017884;28;20057;-82
2021/10/20 05:27:15;;;;;;;4.32;3.50;;;;;;;16.77;59.33;99577.16;5014066;28;19922;-82
2021/10/20 05:29:43;;;;;;;5.57;3.30;;;;;;;16.72;59.54;99589.53;4999466;28;20054;-81
2021/10/20 05:32:10;;;;;;;5.15;3.25;;;;;;;16.72;59.54;99594.34;5008628;28;20046;-81
2021/10/20 05:34:37;;;;;;;5.32;3.30;;;;;;;16.73;59.20;99574.28;4999461;28;20043;-81
2021/10/20 05:37:05;;;;;;;6.35;3.40;;;;;;;16.69;59.57;99581.03;5008526;28;20050;-81
2021/10/20 05:39:32;;;;;;;5.38;3.40;;;;;;;16.66;59.55;99587.44;4998315;28;20061;-81
2021/10/20 05:42:01;;;;;;;7.75;3.65;;;;;;;16.66;59.45;99576.19;5015353;28;20053;-81
2021/10/20 05:44:28;;;;;;;6.47;3.50;;;;;;;16.67;59.61;99584.22;4999313;28;20085;-81
2021/10/20 05:46:55;;;;;;;5.65;3.60;;;;;;;16.68;59.61;99568.97;4995150;28;20057;-81
2021/10/20 05:49:23;;;;;;;4.45;3.40;;;;;;;16.69;59.63;99569.78;5004464;28;20046;-81
2021/10/20 05:51:50;;;;;;;5.22;3.60;;;;;;;16.71;59.39;99570.22;5013925;28;20422;-81
2021/10/20 05:54:20;;;;;;;4.45;3.50;;;;;;;16.62;59.45;99562.84;5017188;28;20049;-82
2021/10/20 05:56:48;;;;;;;5.13;3.42;;;;;;;16.72;59.24;99557.78;5009301;28;20054;-81
2021/10/20 05:59:21;;;;;;;4.75;3.40;;;;;;;16.69;59.21;99556.53;5015284;28;20057;-81
2021/10/20 06:01:49;;;;;;;3.80;3.15;;;;;;;16.76;59.34;99569.91;4998183;28;20495;-82
2021/10/20 06:04:17;;;;;;;4.30;3.17;;;;;;;16.77;59.19;99557.47;5003288;28;20475;-82
2021/10/20 06:06:45;;;;;;;6.78;4.00;;;;;;;16.76;59.26;99541.78;5004807;28;20050;-81
2021/10/20 06:09:13;;;;;;;5.00;3.28;;;;;;;16.84;59.18;99535.13;5017909;28;20482;-81
2021/10/20 06:11:40;;;;;;;6.50;4.03;;;;;;;16.86;59.03;99532.69;5006850;28;20063;-81
2021/10/20 06:14:09;;;;;;;4.72;3.22;;;;;;;16.85;59.09;99528.28;4989679;28;20050;-83
2021/10/20 06:16:41;;;;;;;5.70;3.78;;;;;;;16.85;59.21;99525.47;4998713;28;20038;-83
2021/10/20 06:19:09;;;;;;;4.47;3.25;;;;;;;16.91;58.95;99531.59;4999428;28;20057;-81
2021/10/20 06:21:37;;;;;;;4.80;3.72;;;;;;;16.92;58.98;99519.94;4998223;28;20050;-81
2021/10/20 06:24:05;;;;;;;4.80;3.53;;;;;;;16.95;58.90;99513.56;5003587;28;20057;-81
2021/10/20 06:26:35;;;;;;;4.45;3.72;;;;;;;16.93;58.96;99515.13;5016020;28;20522;-84
2021/10/20 06:29:03;;;;;;;5.95;3.42;;;;;;;16.76;59.51;99502.41;5000912;28;20058;-82
2021/10/20 06:31:31;;;;;;;4.75;3.83;;;;;;;16.92;59.06;99510.69;4997936;28;20046;-82
2021/10/20 06:34:00;;;;;;;4.60;3.42;;;;;;;17.02;58.68;99505.19;4998619;28;20079;-82
2021/10/20 06:36:30;;;;;;;7.70;4.22;;;;;;;17.04;58.58;99502.81;4993180;28;20061;-85
2021/10/20 06:38:58;;;;;;;6.05;3.75;;;;;;;17.12;58.34;99503.72;4985667;28;20068;-85
2021/10/20 06:41:27;;;;;;;4.38;3.50;;;;;;;17.14;58.40;99511.78;5001619;28;20062;-85
2021/10/20 06:43:54;;;;;;;;;;;;;;;16.96;58.53;99503.91;4995169;28;20054;-85
2021/10/20 06:46:22;;;;;;;5.65;3.42;;;;;;;17.16;58.44;99503.78;4985885;28;19922;-85
2021/10/20 06:48:49;;;;;;;5.28;3.85;;;;;;;17.13;58.57;99510.16;4978468;28;20066;-85
2021/10/20 06:51:18;;;;;;;4.03;3.10;;;;;;;17.17;58.29;99489.31;4994999;28;20058;-85
2021/10/20 06:53:45;;;;;;;5.17;3.50;;;;;;;17.15;58.36;99485.25;4993739;28;20054;-85
2021/10/20 06:56:13;;;;;;;5.38;3.60;;;;;;;17.30;57.79;99503.13;4995244;28;20049;-86
2021/10/20 06:58:40;;;;;;;4.70;3.17;;;;;;;17.35;57.86;99500.00;4993842;28;20046;-85
2021/10/20 07:01:08;;;;;;;5.53;3.30;;;;;;;17.50;57.29;99495.34;4992263;28;20046;-86
2021/10/20 07:03:35;;;;;;;4.50;3.53;;;;;;;17.49;57.35;99496.50;4993655;28;20058;-86
2021/10/20 07:06:02;;;;;;;5.43;3.85;;;;;;;17.57;57.18;99495.41;4991877;28;20046;-86
2021/10/20 07:08:31;;;;;;;4.35;3.35;;;;;;;17.61;57.18;99485.78;4993485;28;20062;-85
2021/10/20 07:10:59;;;;;;;5.40;3.50;;;;;;;17.55;57.47;99475.25;4993784;28;20054;-85
2021/10/20 07:13:26;;;;;;;5.85;3.85;;;;;;;17.60;57.16;99472.13;4992856;28;21016;-85
2021/10/20 07:15:54;;;;;;;6.28;3.53;;;;;;;17.61;57.51;99473.72;4992785;28;20353;-85
2021/10/20 07:18:22;;;;;;;4.72;3.20;;;;;;;17.55;57.60;99483.72;4993647;28;20061;-85
2021/10/20 07:20:49;;;;;;;5.28;3.40;;;;;;;17.65;57.22;99471.75;4993460;28;20050;-85
2021/10/20 07:23:17;;;;;;;5.55;3.35;;;;;;;17.77;57.19;99456.59;4997400;28;20399;-85
2021/10/20 07:25:46;;;;;;;4.05;3.13;;;;;;;17.89;56.93;99441.41;4992676;28;20047;-85
2021/10/20 07:28:13;;;;;;;4.10;3.40;;;;;;;18.02;56.58;99457.63;4982884;28;20050;-86
2021/10/20 07:30:41;;;;;;;4.55;3.40;;;;;;;18.50;55.04;99468.06;4990502;28;20057;-85
2021/10/20 07:33:08;;;;;;;4.28;3.42;;;;;;;19.37;53.09;99463.66;5007777;28;20050;-85
2021/10/20 07:35:36;;;;;;;5.38;3.17;;;;;;;19.58;52.50;99451.59;4997121;28;20054;-82
2021/10/20 07:38:03;;;;;;;6.35;3.45;;;;;;;19.69;51.76;99463.72;5014677;28;20058;-89
2021/10/20 07:40:30;;;;;;;4.18;3.50;;;;;;;19.33;52.94;99458.00;5004857;28;20507;-82
2021/10/20 07:43:00;;;;;;;4.38;3.47;;;;;;;18.81;54.36;99452.53;5009738;28;20485;-83
2021/10/20 07:45:28;;;;;;;4.63;3.17;;;;;;;18.75;54.97;99478.66;5000970;28;20056;-82
2021/10/20 07:47:56;;;;;;;4.32;3.33;;;;;;;18.80;54.60;99481.16;5000975;28;20057;-82
2021/10/20 07:50:24;;;;;;;5.18;3.83;;;;;;;18.76;54.88;99480.31;5000822;28;20491;-83
2021/10/20 07:52:52;;;;;;;5.25;3.50;;;;;;;18.90;54.71;99473.94;5012049;28;20392;-83
2021/10/20 07:55:22;;;;;;;4.38;3.35;;;;;;;19.16;54.09;99470.03;4996904;28;20054;-82
2021/10/20 07:57:52;;;;;;;4.80;3.30;;;;;;;19.41;53.59;99478.59;5000561;28;20054;-82
2021/10/20 08:00:22;;;;;;;5.15;3.47;;;;;;;19.54;53.31;99473.38;4998501;28;20057;-83
2021/10/20 08:02:52;;;;;;;5.03;3.20;;;;;;;19.35;54.13;99464.03;4995713;28;20046;-82
2021/10/20 08:05:19;;;;;;;5.05;3.58;;;;;;;19.08;54.71;99449.44;4999042;28;20058;-84
2021/10/20 08:07:47;;;;;;;4.15;3.40;;;;;;;19.08;55.07;99454.28;5014932;28;20066;-83
2021/10/20 08:10:15;;;;;;;4.78;3.33;;;;;;;19.08;55.14;99446.59;5010654;28;20046;-83
2021/10/20 08:12:43;;;;;;;4.90;3.63;;;;;;;19.21;54.63;99427.28;4994681;28;20054;-83
2021/10/20 08:15:12;;;;;;;4.78;4.22;;;;;;;19.11;55.05;99442.19;4993953;28;20603;-84
2021/10/20 08:17:41;;;;;;;4.68;3.50;;;;;;;19.04;55.02;99434.50;4977730;28;20074;-82
2021/10/20 08:20:10;;;;;;;4.68;3.42;;;;;;;19.05;55.28;99414.34;4989546;28;20054;-82
2021/10/20 08:22:39;;;;;;;6.10;3.67;;;;;;;19.19;54.60;99409.94;5003648;28;20042;-84
2021/10/20 08:25:08;;;;;;;5.00;3.60;;;;;;;19.10;54.77;99407.50;4994084;28;20054;-86
2021/10/20 08:27:35;;;;;;;4.40;3.70;;;;;;;19.15;54.66;99397.84;4999149;28;20054;-83
2021/10/20 08:30:04;;;;;;;4.47;3.60;;;;;;;19.21;54.66;99382.97;4999066;28;20069;-82
2021/10/20 08:32:31;;;;;;;4.10;3.20;;;;;;;19.18;54.39;99414.00;5004390;28;20391;-83
2021/10/20 08:35:00;;;;;;;4.18;2.90;;;;;;;18.91;54.84;99386.06;5015160;28;20057;-83
2021/10/20 08:37:27;;;;;;;3.88;3.33;;;;;;;18.73;55.38;99402.91;5000770;28;20352;-83
2021/10/20 08:39:55;;;;;;;5.25;3.60;;;;;;;18.66;55.75;99383.13;5020520;28;20057;-83
2021/10/20 08:42:22;;;;;;;3.85;3.38;;;;;;;18.53;56.11;99382.66;5004089;28;20192;-83
2021/10/20 08:44:49;;;;;;;5.15;3.53;;;;;;;18.19;57.31;99377.25;5002409;28;20047;-82
2021/10/20 08:47:18;;;;;;;4.68;3.33;;;;;;;18.06;57.81;99364.69;5004254;28;20494;-81
2021/10/20 08:49:48;;;;;;;5.30;3.28;;;;;;;17.90;57.94;99345.25;5004478;28;20061;-82
2021/10/20 08:52:17;;;;;;;6.82;3.85;;;;;;;18.14;57.86;99388.06;5006008;28;20050;-82
2021/10/20 08:54:44;;;;;;;5.00;3.50;;;;;;;17.90;58.72;99431.78;5009727;28;20058;-82
2021/10/20 08:57:11;;;;;;;7.80;3.40;;;;;;;18.15;57.47;99381.25;4997437;28;20054;-82
2021/10/20 08:59:39;;;;;;;5.93;3.92;;;;;;;18.54;56.80;99347.63;5002059;28;20049;-82
2021/10/20 09:02:06;;;;;;;5.15;3.25;;;;;;;18.93;55.29;99349.81;5006109;28;20054;-82
2021/10/20 09:04:35;;;;;;;5.05;3.70;;;;;;;19.12;54.90;99350.66;5011029;28;20061;-82
2021/10/20 09:07:02;;;;;;;6.15;3.70;;;;;;;19.48;53.93;99345.88;5010384;28;20068;-82
2021/10/20 09:09:34;;;;;;;4.85;3.45;;;;;;;19.53;53.37;99345.47;5015128;28;20061;-81
2021/10/20 09:12:02;;;;;;;5.45;3.60;;;;;;;20.51;50.96;99321.50;5003666;28;20046;-82
2021/10/20 09:14:29;;;;;;;5.28;3.20;;;;;;;20.15;51.31;99349.88;4998855;28;20050;-83
2021/10/20 09:16:57;;;;;;;4.88;3.60;;;;;;;20.14;51.46;99331.31;4998561;28;20062;-81
2021/10/20 09:19:31;;;;;;;5.38;3.70;;;;;;;20.24;51.61;99324.81;5004741;28;20054;-84
2021/10/20 09:22:01;;;;;;;4.93;3.65;;;;;;;20.03;51.72;99337.00;5010130;28;20054;-85
2021/10/20 09:24:30;;;;;;;5.95;3.45;;;;;;;19.65;52.47;99318.81;5005506;28;20057;-85
2021/10/20 09:26:59;;;;;;;4.68;3.10;;;;;;;18.98;54.30;99326.84;5006004;28;20057;-84
2021/10/20 09:29:30;;;;;;;4.68;3.92;;;;;;;18.91;55.03;99338.09;5004710;28;20060;-82
2021/10/20 09:31:58;;;;;;;7.28;3.60;;;;;;;18.71;55.37;99325.50;5006174;28;20448;-84
2021/10/20 09:34:34;;;;;;;4.70;3.20;;;;;;;18.24;56.49;99323.28;4999703;28;20050;-83
2021/10/20 09:37:03;;;;;;;4.88;3.33;;;;;;;18.09;57.05;99326.44;5004127;28;20061;-84
2021/10/20 09:39:33;;;;;;;4.55;3.80;;;;;;;18.24;57.06;99302.78;5002263;28;20069;-84
2021/10/20 09:42:09;;;;;;;5.00;3.55;;;;;;;18.39;56.94;99287.53;5001891;28;20141;-84
2021/10/20 09:44:47;;;;;;;4.72;3.50;;;;;;;18.41;56.45;99337.88;5003315;28;20062;-84
2021/10/20 09:47:14;;;;;;;6.47;3.97;;;;;;;18.58;56.11;99306.16;5006221;28;20057;-84
2021/10/20 09:49:49;;;;;;;4.47;3.72;;;;;;;18.93;55.15;99284.09;5017926;28;20053;-84
2021/10/20 09:52:16;;;;;;;3.97;3.58;;;;;;;18.63;55.79;99297.28;4998521;28;20058;-84
2021/10/20 09:54:45;;;;;;;6.72;4.07;;;;;;;18.66;55.89;99290.03;4998679;28;20069;-85
2021/10/20 09:57:16;;;;;;;4.53;3.38;;;;;;;18.75;55.82;99303.75;5000421;28;20057;-85
2021/10/20 09:59:44;;;;;;;5.97;3.60;;;;;;;18.90;55.05;99268.78;5008293;28;20054;-81
2021/10/20 10:02:12;;;;;;;4.28;3.55;;;;;;;18.64;55.77;99248.13;5011215;28;20049;-81
2021/10/20 10:04:45;;;;;;;5.45;4.15;;;;;;;18.55;55.92;99255.38;5008700;28;20062;-83
2021/10/20 10:07:12;;;;;;;8.15;3.95;;;;;;;18.64;56.17;99231.19;5011751;28;20061;-84
2021/10/20 10:09:40;;;;;;;4.35;3.45;;;;;;;18.46;56.91;99258.56;5019658;28;20050;-84
2021/10/20 10:12:13;;;;;;;4.45;3.75;;;;;;;18.49;56.81;99251.31;5004685;28;20151;-84
2021/10/20 10:14:46;;;;;;;5.65;3.22;;;;;;;18.27;57.41;99251.25;4995764;28;20069;-84
2021/10/20 10:17:17;;;;;;;5.53;3.63;;;;;;;18.49;57.19;99274.69;5015190;28;20054;-84
2021/10/20 10:19:45;;;;;;;7.15;4.30;;;;;;;18.79;55.97;99257.47;5019337;28;20061;-83
2021/10/20 10:22:27;;;;;;;6.25;4.15;;;;;;;18.84;55.73;99236.53;5009069;28;20050;-82
2021/10/20 10:24:59;;;;;;;6.10;3.88;;;;;;;18.75;55.92;99242.53;5009114;28;20064;-83
2021/10/20 10:27:29;;;;;;;7.32;3.75;;;;;;;19.00;55.41;99241.78;5008543;28;20050;-85
2021/10/20 10:30:04;;;;;;;6.18;4.03;;;;;;;19.02;55.50;99239.34;5017053;28;20053;-83
2021/10/20 10:32:34;;;;;;;5.28;3.90;;;;;;;18.94;55.88;99229.25;5020430;28;20054;-83
2021/10/20 10:35:06;;;;;;;7.50;4.25;;;;;;;19.13;55.49;99234.53;5004646;28;20058;-82
2021/10/20 10:37:35;;;;;;;4.68;3.92;;;;;;;19.00;55.55;99250.25;5007925;28;20054;-83
2021/10/20 10:40:19;;;;;;;5.80;3.75;;;;;;;18.81;56.16;99237.31;5004499;28;20503;-83
2021/10/20 10:42:47;;;;;;;6.88;4.38;;;;;;;18.84;56.28;99256.28;5001980;28;20057;-83
2021/10/20 10:45:17;;;;;;;4.13;3.72;;;;;;;18.85;58.22;99257.88;5008440;28;20074;-83
2021/10/20 10:48:01;;;;;;;5.60;4.03;;;;;;;18.76;57.41;99254.63;5013669;28;20570;-83
2021/10/20 10:50:41;;;;;;;5.18;4.32;;;;;;;18.38;59.58;99254.13;5008778;28;20065;-82
2021/10/20 10:53:08;;;;;;;6.57;4.78;;;;;;;18.23;61.14;99223.03;5011118;28;20053;-82
2021/10/20 10:55:36;;;;;;;8.45;5.30;;;;;;;18.20;63.82;99259.66;5021356;28;20046;-82
2021/10/20 10:58:15;;;;;;;7.28;5.38;;;;;;;18.02;64.30;99239.88;5008050;28;20042;-83
2021/10/20 11:00:49;;;;;;;7.30;5.30;;;;;;;17.95;64.53;99232.16;5020928;28;20058;-83
2021/10/20 11:03:24;;;;;;;8.98;5.82;;;;;;;17.98;65.91;99233.41;5011593;28;20046;-83
2021/10/20 11:05:58;;;;;;;6.68;5.57;;;;;;;18.17;66.38;99252.00;5015825;28;20484;-82
2021/10/20 11:08:30;;;;;;;6.22;4.78;;;;;;;18.13;63.53;99232.25;5016694;28;20050;-82
2021/10/20 11:10:58;;;;;;;7.22;5.63;;;;;;;18.36;64.06;99243.22;5016187;28;20500;-83
2021/10/20 11:13:25;;;;;;;5.80;4.88;;;;;;;18.53;64.24;99236.03;5020723;28;20772;-84
2021/10/20 11:15:56;;;;;;;5.45;4.85;;;;;;;20.84;55.24;99211.81;5009121;28;20057;-84
2021/10/20 11:18:24;;;;;;;7.28;5.03;;;;;;;20.99;53.61;99216.13;5005581;28;20053;-83
2021/10/20 11:20:55;;;;;;;4.88;4.35;;;;;;;19.65;56.90;99267.97;5013480;28;20065;-83
2021/10/20 11:23:22;;;;;;;4.28;3.72;;;;;;;19.10;58.76;99285.34;5002949;28;20054;-86
2021/10/20 11:25:50;;;;;;;7.93;4.80;;;;;;;18.61;59.83;99277.16;5007999;28;20058;-82
2021/10/20 11:28:18;;;;;;;8.13;4.70;;;;;;;18.11;65.00;99260.03;5017459;28;20069;-82
2021/10/20 11:30:46;;;;;;;11.60;6.25;;;;;;;18.03;67.23;99261.19;5014930;28;20388;-81
2021/10/20 11:33:21;;;;;;;7.25;5.85;;;;;;;17.87;69.18;99322.66;5003568;28;20057;-81
2021/10/20 11:35:48;;;;;;;8.85;6.53;;;;;;;17.82;67.21;99282.41;5000655;28;20042;-82
2021/10/20 11:38:18;;;;;;;6.90;5.28;;;;;;;18.48;65.58;99275.91;4989178;28;20051;-82
2021/10/20 11:40:48;;;;;;;7.30;5.22;;;;;;;17.98;66.60;99268.03;5004273;28;20069;-84